Time;durP1;ratioP1;P1;durP2;ratioP2;P2;SDS_P1;SDS_P2;PMS_P1;PMS_P2;Temp;Humidity;BMP_temperature;BMP_pressure;BME280_temperature;BME280_humidity;BME280_pressure;Samples;Min_cycle;Max_cycle;Signal;HPM_P1;HPM_P2
2021/12/20 00:01:47;;;;;;;21.95;5.07;;;5.80;99.90;;;;;;5094354;28;20032;-67
2021/12/20 00:04:13;;;;;;;25.88;5.22;;;5.70;99.90;;;;;;5077082;28;20027;-67
2021/12/20 00:06:38;;;;;;;22.30;5.35;;;5.70;99.90;;;;;;5093789;28;20028;-67
2021/12/20 00:09:05;;;;;;;21.23;5.50;;;5.70;99.90;;;;;;5095489;28;20071;-67
2021/12/20 00:11:30;;;;;;;26.70;5.25;;;5.70;99.90;;;;;;5093709;28;20024;-67
2021/12/20 00:13:56;;;;;;;28.48;5.13;;;5.70;99.90;;;;;;5094268;28;20035;-67
2021/12/20 00:16:21;;;;;;;25.63;5.20;;;5.60;99.90;;;;;;5093584;28;20028;-67
2021/12/20 00:18:47;;;;;;;19.15;4.57;;;5.60;99.90;;;;;;5093897;28;20427;-67
2021/12/20 00:21:13;;;;;;;20.75;5.10;;;5.50;99.90;;;;;;5093831;28;20031;-67
2021/12/20 00:23:39;;;;;;;22.30;5.60;;;5.30;99.90;;;;;;5093783;28;20070;-66
2021/12/20 00:26:04;;;;;;;16.90;3.92;;;5.20;99.90;;;;;;5076466;28;20035;-67
2021/12/20 00:28:30;;;;;;;15.68;4.10;;;5.10;99.90;;;;;;5093437;28;20393;-67
2021/12/20 00:30:55;;;;;;;17.63;4.20;;;5.10;99.90;;;;;;5076422;28;20089;-67
2021/12/20 00:33:21;;;;;;;20.52;4.05;;;5.00;99.90;;;;;;5093269;28;20119;-67
2021/12/20 00:35:47;;;;;;;10.98;3.38;;;4.90;99.90;;;;;;5093224;28;20024;-67
2021/12/20 00:40:59;;;;;;;24.15;4.55;;;4.80;99.90;;;;;;5093194;28;20016;-67
2021/12/20 00:43:25;;;;;;;17.73;4.43;;;4.70;99.90;;;;;;5094857;28;20039;-67
2021/12/20 00:45:51;;;;;;;13.27;3.70;;;4.60;99.90;;;;;;5076102;28;20483;-66
2021/12/20 00:48:17;;;;;;;16.50;3.83;;;4.50;99.90;;;;;;5093588;28;20063;-67
2021/12/20 00:50:43;;;;;;;19.42;4.38;;;4.40;99.90;;;;;;5093742;28;20027;-67
2021/12/20 00:53:10;;;;;;;14.48;3.63;;;4.30;99.90;;;;;;5094744;28;20105;-67
2021/12/20 00:55:36;;;;;;;16.40;4.07;;;4.20;99.90;;;;;;5092857;28;20178;-67
2021/12/20 00:58:03;;;;;;;21.27;4.22;;;4.10;99.90;;;;;;5094562;28;20038;-67
2021/12/20 01:00:34;;;;;;;27.10;4.65;;;4.10;99.90;;;;;;5093589;28;20115;-66
2021/12/20 01:03:02;;;;;;;14.57;3.63;;;4.00;99.90;;;;;;5075928;28;20016;-66
2021/12/20 01:05:28;;;;;;;24.15;4.20;;;4.00;99.90;;;;;;5075869;28;20043;-67
2021/12/20 01:07:58;;;;;;;23.48;4.47;;;4.00;99.90;;;;;;5093338;28;20032;-67
2021/12/20 01:10:25;;;;;;;22.35;5.20;;;4.00;99.90;;;;;;5094345;28;20651;-67
2021/12/20 01:12:52;;;;;;;25.73;5.07;;;4.00;99.90;;;;;;5094709;28;20016;-67
2021/12/20 01:15:22;;;;;;;21.90;4.00;;;3.90;99.90;;;;;;5094124;28;20095;-67
2021/12/20 01:17:48;;;;;;;17.02;4.18;;;3.90;99.90;;;;;;5092515;28;20450;-66
2021/12/20 01:20:14;;;;;;;21.13;3.88;;;3.90;99.90;;;;;;5075652;28;20056;-66
2021/12/20 01:22:42;;;;;;;12.70;3.30;;;3.90;99.90;;;;;;5092560;28;20028;-67
2021/12/20 01:25:08;;;;;;;31.25;4.25;;;3.90;99.90;;;;;;5075818;28;20020;-66
2021/12/20 01:27:34;;;;;;;22.17;4.03;;;3.80;99.90;;;;;;5094274;28;20024;-66
2021/12/20 01:29:59;;;;;;;23.27;3.80;;;3.80;99.90;;;;;;5092407;28;20020;-66
2021/12/20 01:32:25;;;;;;;20.58;5.43;;;3.80;99.90;;;;;;5093208;28;20024;-66
2021/12/20 01:34:50;;;;;;;14.52;4.18;;;3.80;99.90;;;;;;5092368;28;20471;-66
2021/12/20 01:37:16;;;;;;;26.65;3.80;;;3.70;99.90;;;;;;5075253;28;20501;-67
2021/12/20 01:39:42;;;;;;;18.40;3.88;;;3.70;99.90;;;;;;5094116;28;20027;-66
2021/12/20 01:42:08;;;;;;;21.45;4.05;;;3.60;99.90;;;;;;5092673;28;20590;-66
2021/12/20 01:44:36;;;;;;;18.88;4.13;;;3.60;99.90;;;;;;5076445;28;20081;-66
2021/12/20 01:47:04;;;;;;;24.40;3.95;;;3.60;99.90;;;;;;5092392;28;20031;-66
2021/12/20 01:49:37;;;;;;;23.33;4.38;;;3.50;99.90;;;;;;5092901;28;20104;-66
2021/12/20 01:52:11;;;;;;;17.98;2.85;;;3.60;99.90;;;;;;5092668;28;20020;-66
2021/12/20 01:54:36;;;;;;;17.17;3.30;;;3.60;99.90;;;;;;5076471;28;20119;-67
2021/12/20 01:57:02;;;;;;;29.13;4.75;;;3.60;99.90;;;;;;5075390;28;20135;-66
2021/12/20 01:59:28;;;;;;;22.95;5.07;;;3.60;99.90;;;;;;5093925;28;20020;-66
2021/12/20 02:01:55;;;;;;;23.35;4.38;;;3.70;99.90;;;;;;5092446;28;20035;-66
2021/12/20 02:04:22;;;;;;;17.55;3.63;;;3.70;99.90;;;;;;5092080;28;20016;-66
2021/12/20 02:06:48;;;;;;;21.85;4.13;;;3.70;99.90;;;;;;5075902;28;20043;-66
2021/12/20 02:09:17;;;;;;;19.83;4.35;;;3.80;99.90;;;;;;5093282;28;20051;-66
2021/12/20 02:11:45;;;;;;;16.50;3.72;;;3.80;99.90;;;;;;5093269;28;20032;-67
2021/12/20 02:14:13;;;;;;;16.05;3.67;;;3.80;99.90;;;;;;5075323;28;20115;-66
2021/12/20 02:16:40;;;;;;;17.58;3.58;;;3.80;99.90;;;;;;5091905;28;20020;-66
2021/12/20 02:19:09;;;;;;;18.20;4.35;;;3.80;99.90;;;;;;5092312;28;20054;-67
2021/12/20 02:21:35;;;;;;;36.42;5.07;;;3.80;99.90;;;;;;5092270;28;20024;-66
2021/12/20 02:24:01;;;;;;;24.23;5.25;;;3.80;99.90;;;;;;5094468;28;20027;-67
2021/12/20 02:26:27;;;;;;;33.03;5.60;;;3.80;99.90;;;;;;5096080;28;20027;-67
2021/12/20 02:28:55;;;;;;;28.70;4.85;;;3.80;99.90;;;;;;5097515;28;20369;-67
2021/12/20 02:37:02;;;;;;;22.52;4.68;;;3.90;99.90;;;;;;5111231;28;20032;-67
2021/12/20 02:39:27;;;;;;;28.85;4.78;;;3.90;99.90;;;;;;5111850;28;20031;-67
2021/12/20 02:41:53;;;;;;;26.23;4.53;;;3.90;99.90;;;;;;5093162;28;20032;-67
2021/12/20 02:44:21;;;;;;;28.60;4.45;;;4.00;99.90;;;;;;5110644;28;20030;-67
2021/12/20 02:47:03;;;;;;;30.00;5.05;;;4.00;99.90;;;;;;5110439;28;20028;-68
2021/12/20 02:49:31;;;;;;;21.00;3.77;;;4.00;99.90;;;;;;5095273;28;20028;-67
2021/12/20 02:52:02;;;;;;;15.35;3.30;;;4.10;99.90;;;;;;5111282;28;20278;-67
2021/12/20 02:54:28;;;;;;;31.23;4.38;;;4.10;99.90;;;;;;5110131;28;20019;-67
2021/12/20 02:56:54;;;;;;;32.13;4.90;;;4.10;99.90;;;;;;5111028;28;20119;-67
2021/12/20 02:59:19;;;;;;;18.55;3.95;;;4.10;99.90;;;;;;5109735;28;20024;-67
2021/12/20 03:01:49;;;;;;;34.20;5.28;;;4.10;99.90;;;;;;5109670;28;20476;-67
2021/12/20 03:04:14;;;;;;;23.00;3.83;;;4.10;99.90;;;;;;5093030;28;20020;-67
2021/12/20 03:06:49;;;;;;;25.92;4.60;;;4.10;99.90;;;;;;5092641;28;20023;-67
2021/12/20 03:09:20;;;;;;;20.35;4.93;;;4.20;99.90;;;;;;5110254;28;20034;-67
2021/12/20 03:11:46;;;;;;;32.65;6.30;;;4.20;99.90;;;;;;5110080;28;20030;-68
2021/12/20 03:14:19;;;;;;;25.90;4.75;;;4.20;99.90;;;;;;5109805;28;20050;-67
2021/12/20 03:16:45;;;;;;;29.05;4.85;;;4.20;99.90;;;;;;5109862;28;20024;-68
2021/12/20 03:19:10;;;;;;;28.40;5.43;;;4.30;99.90;;;;;;5109326;28;20129;-68
2021/12/20 03:21:36;;;;;;;24.55;4.57;;;4.30;99.90;;;;;;5092377;28;20047;-67
2021/12/20 03:24:02;;;;;;;28.60;5.25;;;4.30;99.90;;;;;;5092362;28;20073;-67
2021/12/20 03:26:28;;;;;;;34.72;5.57;;;4.30;99.90;;;;;;5109489;28;20020;-67
2021/12/20 03:28:53;;;;;;;30.52;5.15;;;4.30;99.90;;;;;;5110005;28;20026;-67
2021/12/20 03:31:19;;;;;;;41.22;5.75;;;4.30;99.90;;;;;;5109755;28;20031;-67
2021/12/20 03:33:45;;;;;;;34.10;5.15;;;4.40;99.90;;;;;;5110061;28;20082;-68
2021/12/20 03:36:11;;;;;;;32.38;5.57;;;4.40;99.90;;;;;;5108987;28;20051;-67
2021/12/20 03:38:36;;;;;;;35.65;5.82;;;4.40;99.90;;;;;;5108951;28;20471;-67
2021/12/20 03:41:02;;;;;;;32.83;5.88;;;4.40;99.90;;;;;;5108917;28;20024;-67
2021/12/20 03:43:31;;;;;;;39.22;5.78;;;4.40;99.90;;;;;;5106699;28;20032;-67
2021/12/20 03:45:58;;;;;;;33.85;5.40;;;4.50;99.90;;;;;;5078884;28;20076;-67
2021/12/20 03:48:24;;;;;;;40.42;6.85;;;4.50;99.90;;;;;;5097030;28;20120;-67
2021/12/20 03:50:49;;;;;;;32.75;5.45;;;4.70;99.90;;;;;;5095551;28;20492;-66
2021/12/20 03:53:15;;;;;;;28.67;5.72;;;4.70;99.90;;;;;;5078166;28;20105;-67
2021/12/20 03:55:40;;;;;;;34.72;5.53;;;4.60;99.90;;;;;;5096864;28;20020;-68
2021/12/20 03:58:06;;;;;;;30.75;5.20;;;4.50;99.90;;;;;;5095018;28;20051;-67
2021/12/20 04:00:32;;;;;;;28.60;5.55;;;4.30;99.90;;;;;;5096545;28;20116;-67
2021/12/20 04:02:58;;;;;;;36.17;7.28;;;4.20;99.90;;;;;;5096717;28;20038;-67
2021/12/20 04:05:23;;;;;;;42.85;6.55;;;4.20;99.90;;;;;;5078057;28;20119;-67
2021/12/20 04:07:49;;;;;;;40.72;6.78;;;4.20;99.90;;;;;;5095638;28;20115;-67
2021/12/20 04:10:15;;;;;;;41.53;7.35;;;4.20;99.90;;;;;;5096316;28;20469;-67
2021/12/20 04:12:41;;;;;;;44.95;7.28;;;4.20;99.90;;;;;;5095069;28;20461;-67
2021/12/20 04:15:06;;;;;;;35.55;6.38;;;4.20;99.90;;;;;;5094697;28;20083;-66
2021/12/20 04:17:32;;;;;;;30.63;6.15;;;4.20;99.90;;;;;;5094636;28;20024;-67
2021/12/20 04:19:58;;;;;;;34.53;5.53;;;4.20;99.90;;;;;;5077754;28;20050;-67
2021/12/20 04:22:23;;;;;;;36.40;6.13;;;4.10;99.90;;;;;;5096349;28;20024;-67
2021/12/20 04:24:49;;;;;;;38.25;5.68;;;4.20;99.90;;;;;;5096023;28;20028;-66
2021/12/20 04:27:14;;;;;;;39.08;6.43;;;4.10;99.90;;;;;;5094484;28;20035;-66
2021/12/20 04:29:40;;;;;;;42.03;7.82;;;4.00;99.90;;;;;;5096211;28;20063;-67
2021/12/20 04:32:06;;;;;;;37.17;6.28;;;4.00;99.90;;;;;;5095786;28;20040;-67
2021/12/20 04:34:31;;;;;;;35.50;6.07;;;3.80;99.90;;;;;;5095106;28;20465;-67
2021/12/20 04:36:57;;;;;;;42.00;7.22;;;3.80;99.90;;;;;;5094634;28;20419;-67
2021/12/20 04:39:27;;;;;;;33.70;5.65;;;3.80;99.90;;;;;;5096058;28;20027;-67
2021/12/20 04:41:53;;;;;;;37.55;6.28;;;3.80;99.90;;;;;;5094889;28;20078;-67
2021/12/20 04:44:18;;;;;;;45.42;9.25;;;3.80;99.90;;;;;;5095928;28;20027;-67
2021/12/20 04:46:44;;;;;;;37.00;7.35;;;3.90;99.90;;;;;;5095855;28;20024;-67
2021/12/20 04:49:09;;;;;;;38.35;6.78;;;3.90;99.90;;;;;;5095843;28;20058;-66
2021/12/20 04:51:35;;;;;;;43.83;8.13;;;3.90;99.90;;;;;;5095790;28;20430;-67
2021/12/20 04:54:01;;;;;;;44.53;8.95;;;3.90;99.90;;;;;;5077116;28;20030;-67
2021/12/20 04:56:26;;;;;;;31.75;7.65;;;3.90;99.90;;;;;;5093250;28;20099;-67
2021/12/20 04:58:52;;;;;;;33.67;7.10;;;3.70;99.90;;;;;;5094503;28;20031;-67
2021/12/20 05:01:18;;;;;;;37.08;8.52;;;3.60;99.90;;;;;;5094434;28;20024;-68
2021/12/20 05:03:43;;;;;;;41.45;9.45;;;3.50;99.90;;;;;;5094169;28;20521;-67
2021/12/20 05:06:09;;;;;;;41.15;9.95;;;3.50;99.90;;;;;;5094081;28;20073;-67
2021/12/20 05:08:45;;;;;;;29.98;9.35;;;3.50;99.90;;;;;;5094293;28;20078;-67
2021/12/20 05:11:11;;;;;;;39.90;9.68;;;3.50;99.90;;;;;;5094425;28;20028;-67
2021/12/20 05:13:36;;;;;;;37.72;9.52;;;3.40;99.90;;;;;;5095238;28;20027;-67
2021/12/20 05:16:02;;;;;;;43.67;10.60;;;3.40;99.90;;;;;;5093494;28;20020;-67
2021/12/20 05:18:28;;;;;;;40.55;10.55;;;3.40;99.90;;;;;;5076616;28;20024;-67
2021/12/20 05:20:53;;;;;;;44.13;10.25;;;3.40;99.90;;;;;;5093782;28;20380;-67
2021/12/20 05:23:19;;;;;;;33.90;10.73;;;3.40;99.90;;;;;;5093710;28;20452;-67
2021/12/20 05:25:45;;;;;;;28.98;9.52;;;3.40;99.90;;;;;;5093914;28;20028;-67
2021/12/20 05:28:10;;;;;;;37.05;9.50;;;3.40;99.90;;;;;;5076396;28;20416;-67
2021/12/20 05:30:37;;;;;;;39.67;10.10;;;3.30;99.90;;;;;;5094763;28;20024;-67
2021/12/20 05:33:03;;;;;;;41.58;9.85;;;3.30;99.90;;;;;;5093183;28;20048;-67
2021/12/20 05:35:29;;;;;;;31.55;8.32;;;3.20;99.90;;;;;;5093511;28;20020;-67
2021/12/20 05:37:55;;;;;;;25.80;8.07;;;3.10;99.90;;;;;;5093102;28;20028;-66
2021/12/20 05:40:20;;;;;;;34.88;8.75;;;2.90;99.90;;;;;;5094896;28;20024;-66
2021/12/20 05:42:46;;;;;;;25.73;8.20;;;2.70;99.90;;;;;;5094267;28;20081;-66
2021/12/20 05:45:13;;;;;;;39.80;9.88;;;2.60;99.90;;;;;;5076204;28;20073;-66
2021/12/20 05:47:38;;;;;;;38.97;8.25;;;2.50;99.90;;;;;;5076151;28;20028;-66
2021/12/20 05:50:06;;;;;;;26.52;7.18;;;2.40;99.90;;;;;;5093563;28;20465;-66
2021/12/20 05:52:32;;;;;;;26.77;7.72;;;2.20;99.90;;;;;;5093191;28;20066;-66
2021/12/20 05:54:57;;;;;;;28.73;8.70;;;2.10;99.90;;;;;;5075945;28;20051;-66
2021/12/20 05:57:23;;;;;;;23.88;8.25;;;2.00;99.90;;;;;;5093163;28;20062;-67
2021/12/20 05:59:48;;;;;;;26.73;7.55;;;1.90;99.90;;;;;;5093388;28;20020;-66
2021/12/20 06:02:14;;;;;;;25.08;6.90;;;1.80;99.90;;;;;;5075828;28;20028;-66
2021/12/20 06:04:40;;;;;;;26.52;7.32;;;1.70;99.90;;;;;;5092949;28;20046;-65
2021/12/20 06:07:05;;;;;;;25.63;6.53;;;1.70;99.90;;;;;;5075541;28;20066;-65
2021/12/20 06:09:31;;;;;;;23.52;6.63;;;1.60;99.90;;;;;;5092946;28;20028;-65
2021/12/20 06:11:59;;;;;;;20.67;6.25;;;1.50;99.90;;;;;;5093977;28;20056;-65
2021/12/20 06:14:27;;;;;;;22.52;6.90;;;1.40;99.90;;;;;;5092506;28;20030;-65
2021/12/20 06:16:55;;;;;;;25.13;7.10;;;1.40;99.90;;;;;;5076646;28;20020;-65
2021/12/20 06:19:22;;;;;;;30.08;8.40;;;1.30;99.90;;;;;;5092414;28;20020;-64
2021/12/20 06:21:48;;;;;;;30.77;7.80;;;1.30;99.90;;;;;;5092737;28;20469;-65
2021/12/20 06:24:13;;;;;;;28.65;7.65;;;1.20;99.90;;;;;;5094198;28;20024;-66
2021/12/20 06:26:39;;;;;;;26.45;7.07;;;1.20;99.90;;;;;;5092357;28;20020;-66
2021/12/20 06:29:04;;;;;;;29.00;8.15;;;1.10;99.90;;;;;;5092649;28;20520;-66
2021/12/20 06:31:30;;;;;;;29.88;7.95;;;1.00;99.90;;;;;;5094059;28;20028;-66
2021/12/20 06:33:55;;;;;;;22.92;7.00;;;1.00;99.90;;;;;;5093262;28;20048;-66
2021/12/20 06:36:21;;;;;;;29.08;7.03;;;0.90;99.90;;;;;;5094114;28;20028;-66
2021/12/20 06:38:47;;;;;;;31.92;7.55;;;0.90;99.90;;;;;;5092904;28;20020;-66
2021/12/20 06:41:13;;;;;;;28.17;7.78;;;0.80;99.90;;;;;;5092627;28;20023;-65
2021/12/20 06:43:39;;;;;;;26.90;7.18;;;0.80;99.90;;;;;;5092248;28;20476;-66
2021/12/20 06:46:05;;;;;;;25.60;7.00;;;0.80;99.90;;;;;;5092523;28;20385;-66
2021/12/20 06:48:31;;;;;;;23.05;6.90;;;0.70;99.90;;;;;;5092768;28;20039;-66
2021/12/20 06:50:56;;;;;;;23.77;8.27;;;0.70;99.90;;;;;;5093958;28;20028;-66
2021/12/20 06:53:22;;;;;;;25.83;7.93;;;0.60;99.90;;;;;;5093850;28;20031;-65
2021/12/20 06:55:47;;;;;;;27.48;8.45;;;0.60;99.90;;;;;;5092114;28;20031;-66
2021/12/20 06:58:13;;;;;;;46.97;10.25;;;0.50;99.90;;;;;;5075136;28;20020;-66
2021/12/20 07:00:39;;;;;;;37.15;9.73;;;0.50;99.90;;;;;;5075140;28;20021;-66
2021/12/20 07:03:04;;;;;;;29.00;8.15;;;0.40;99.90;;;;;;5093633;28;20406;-66
2021/12/20 07:05:30;;;;;;;31.13;8.65;;;0.40;99.90;;;;;;5092612;28;20020;-66
2021/12/20 07:07:55;;;;;;;45.50;11.70;;;0.30;99.90;;;;;;5092203;28;20028;-65
2021/12/20 07:10:21;;;;;;;33.88;10.85;;;0.40;99.90;;;;;;5093621;28;20028;-65
2021/12/20 07:12:47;;;;;;;28.45;9.40;;;0.30;99.90;;;;;;5092230;28;20035;-65
2021/12/20 07:15:15;;;;;;;29.80;9.43;;;0.30;99.90;;;;;;5092160;28;20016;-65
2021/12/20 07:17:41;;;;;;;30.52;9.10;;;0.30;99.90;;;;;;5075262;28;20024;-65
2021/12/20 07:20:08;;;;;;;25.52;9.15;;;0.20;99.90;;;;;;5094431;28;20089;-65
2021/12/20 07:22:33;;;;;;;27.92;8.35;;;0.20;99.90;;;;;;5095368;28;20028;-65
2021/12/20 07:25:00;;;;;;;49.58;10.35;;;0.20;99.90;;;;;;5078669;28;20441;-65
2021/12/20 07:27:25;;;;;;;36.03;10.00;;;0.20;99.90;;;;;;5096681;28;20016;-65
2021/12/20 07:29:51;;;;;;;30.15;8.10;;;0.20;99.90;;;;;;5096987;28;20425;-65
2021/12/20 07:32:17;;;;;;;26.42;8.13;;;0.10;99.90;;;;;;5096369;28;20521;-66
2021/12/20 07:34:42;;;;;;;18.75;7.32;;;0.10;99.90;;;;;;5096412;28;20031;-66
2021/12/20 07:37:08;;;;;;;27.67;8.27;;;0.00;99.90;;;;;;5095999;28;20020;-66
2021/12/20 07:39:34;;;;;;;41.03;8.65;;;0.00;99.90;;;;;;5095766;28;20024;-65
2021/12/20 07:42:00;;;;;;;34.28;8.68;;;0.00;99.90;;;;;;5076520;28;20021;-66
2021/12/20 07:44:26;;;;;;;33.92;9.23;;;-0.10;99.90;;;;;;5076784;28;20036;-65
2021/12/20 07:46:53;;;;;;;35.72;8.52;;;-0.10;99.90;;;;;;5077744;28;20020;-65
2021/12/20 07:49:18;;;;;;;40.83;9.70;;;-0.10;99.90;;;;;;5095346;28;20024;-65
2021/12/20 07:51:44;;;;;;;36.67;10.85;;;0.00;99.90;;;;;;5094096;28;20102;-65
2021/12/20 07:54:10;;;;;;;39.55;10.05;;;0.00;99.90;;;;;;5073658;28;20495;-65
2021/12/20 07:56:35;;;;;;;41.65;10.57;;;0.10;99.90;;;;;;5091725;28;20435;-65
2021/12/20 07:59:01;;;;;;;32.40;10.68;;;0.20;99.90;;;;;;5093548;28;20396;-65
2021/12/20 08:01:27;;;;;;;43.88;11.52;;;0.30;99.90;;;;;;5092838;28;20017;-65
2021/12/20 08:03:53;;;;;;;37.75;11.00;;;0.50;99.90;;;;;;5077134;28;20761;-65
2021/12/20 08:06:20;;;;;;;41.38;12.85;;;0.80;99.90;;;;;;5076781;28;20411;-65
2021/12/20 08:08:45;;;;;;;64.15;14.90;;;1.30;99.90;;;;;;5094142;28;20028;-65
2021/12/20 08:11:11;;;;;;;68.47;14.38;;;1.90;99.90;;;;;;5093550;28;20024;-66
2021/12/20 08:13:44;;;;;;;62.03;15.45;;;2.50;99.90;;;;;;5093821;28;20372;-66
2021/12/20 08:16:11;;;;;;;69.85;15.77;;;2.90;99.90;;;;;;5093697;28;20109;-66
2021/12/20 08:18:38;;;;;;;55.05;14.38;;;3.00;99.90;;;;;;5092634;28;20032;-66
2021/12/20 08:21:03;;;;;;;52.33;13.30;;;3.40;99.90;;;;;;5092633;28;20031;-67
2021/12/20 08:23:29;;;;;;;50.33;13.68;;;3.60;99.90;;;;;;5092897;28;20028;-67
2021/12/20 08:25:54;;;;;;;51.10;14.23;;;3.80;99.90;;;;;;5091936;28;20028;-67
2021/12/20 08:28:19;;;;;;;52.60;12.85;;;3.90;99.90;;;;;;5076093;28;20541;-67
2021/12/20 08:30:45;;;;;;;62.70;14.27;;;3.90;99.90;;;;;;5093600;28;20145;-67
2021/12/20 08:33:12;;;;;;;54.13;16.55;;;4.00;99.90;;;;;;5092543;28;20370;-67
2021/12/20 08:35:38;;;;;;;64.90;15.55;;;4.00;99.90;;;;;;5072472;28;20047;-67
2021/12/20 08:38:03;;;;;;;46.15;12.60;;;4.00;99.90;;;;;;5087832;28;20028;-67
2021/12/20 08:40:29;;;;;;;44.15;12.70;;;4.20;99.90;;;;;;5093840;28;20028;-66
2021/12/20 08:42:55;;;;;;;39.30;11.70;;;4.40;99.90;;;;;;5093682;28;20107;-68
2021/12/20 08:45:21;;;;;;;46.28;12.02;;;4.70;99.90;;;;;;5092803;28;20024;-67
2021/12/20 08:47:46;;;;;;;34.33;11.13;;;5.30;99.90;;;;;;5093201;28;20433;-67
2021/12/20 08:50:16;;;;;;;37.92;10.43;;;6.00;99.90;;;;;;5094177;28;20143;-67
2021/12/20 08:52:42;;;;;;;32.40;10.48;;;6.60;99.90;;;;;;5093201;28;20031;-66
2021/12/20 08:55:09;;;;;;;28.05;9.88;;;7.20;99.90;;;;;;5092902;28;20396;-66
2021/12/20 08:57:35;;;;;;;34.25;10.95;;;7.90;99.90;;;;;;5093290;28;20051;-67
2021/12/20 09:00:02;;;;;;;34.83;11.02;;;8.30;99.90;;;;;;5092056;28;20420;-67
2021/12/20 09:02:28;;;;;;;32.63;10.68;;;8.30;99.90;;;;;;5096769;28;20051;-67
2021/12/20 09:04:53;;;;;;;37.30;12.80;;;8.30;99.90;;;;;;5086773;28;20589;-67
2021/12/20 09:07:19;;;;;;;27.65;11.35;;;8.60;99.90;;;;;;5094145;28;20024;-67
2021/12/20 09:09:47;;;;;;;30.75;11.23;;;8.70;99.90;;;;;;5083518;28;20089;-67
2021/12/20 09:12:15;;;;;;;35.40;11.35;;;9.30;99.90;;;;;;5072707;28;20021;-67
2021/12/20 09:14:41;;;;;;;29.17;10.75;;;9.50;99.90;;;;;;5089642;28;20022;-67
2021/12/20 09:17:07;;;;;;;34.08;12.60;;;9.60;99.90;;;;;;5086621;28;20048;-67
2021/12/20 09:19:35;;;;;;;34.17;12.85;;;9.40;99.90;;;;;;5075450;28;20434;-67
2021/12/20 09:22:02;;;;;;;28.35;13.07;;;9.30;99.90;;;;;;5081917;28;20020;-67
2021/12/20 09:24:28;;;;;;;40.17;12.90;;;9.10;99.90;;;;;;5092342;28;20052;-67
2021/12/20 09:26:53;;;;;;;36.28;13.35;;;8.80;99.90;;;;;;5092540;28;20068;-67
2021/12/20 09:29:19;;;;;;;32.65;13.80;;;9.10;99.90;;;;;;5093453;28;20031;-67
2021/12/20 09:31:44;;;;;;;34.28;12.18;;;9.10;99.90;;;;;;5084612;28;20032;-67
2021/12/20 09:34:11;;;;;;;38.25;12.60;;;9.50;99.90;;;;;;5085547;28;20028;-67
2021/12/20 09:36:36;;;;;;;29.70;10.68;;;9.50;99.90;;;;;;5091193;28;20024;-66
2021/12/20 09:39:07;;;;;;;31.95;11.25;;;9.80;99.90;;;;;;5091590;28;20072;-66
2021/12/20 09:44:13;;;;;;;28.27;10.30;;;9.80;99.90;;;;;;5106041;27;20393;-67
2021/12/20 09:46:40;;;;;;;29.50;10.63;;;10.20;99.90;;;;;;5087657;28;20054;-67
2021/12/20 09:49:09;;;;;;;32.65;11.30;;;10.20;99.90;;;;;;5088054;28;20031;-67
2021/12/20 09:51:36;;;;;;;36.45;11.50;;;9.80;99.90;;;;;;5088040;28;20055;-67
2021/12/20 09:54:01;;;;;;;40.70;11.75;;;9.90;99.90;;;;;;5088102;28;20457;-67
2021/12/20 09:56:28;;;;;;;37.38;11.77;;;9.90;99.90;;;;;;5087695;28;20024;-67
2021/12/20 09:58:57;;;;;;;36.05;11.35;;;10.30;99.90;;;;;;5089307;28;20489;-67
2021/12/20 10:01:24;;;;;;;32.15;11.63;;;10.30;99.90;;;;;;5089845;28;20028;-67
2021/12/20 10:03:52;;;;;;;34.50;11.43;;;10.30;99.90;;;;;;5088264;28;20059;-67
2021/12/20 10:06:18;;;;;;;37.70;12.45;;;10.60;99.90;;;;;;5072593;28;20073;-67
2021/12/20 10:09:09;;;;;;;36.25;12.35;;;9.80;99.90;;;;;;5098837;28;20020;-67
2021/12/20 10:11:30;;;;;;;32.75;12.77;;;9.60;99.90;;;;;;5077446;28;20346;-67
2021/12/20 10:14:05;;;;;;;39.97;13.05;;;9.60;99.90;;;;;;5105363;28;20021;-67
2021/12/20 10:16:31;;;;;;;42.58;13.50;;;9.70;99.90;;;;;;5070474;28;20052;-74
2021/12/20 10:18:59;;;;;;;33.78;12.35;;;10.10;99.90;;;;;;5087973;28;20025;-74
2021/12/20 10:21:44;;;;;;;39.22;13.43;;;9.90;99.90;;;;;;5087659;28;20024;-74
2021/12/20 10:24:29;;;;;;;31.13;13.05;;;9.80;99.90;;;;;;5105054;28;20666;-74
2021/12/20 10:26:55;;;;;;;30.65;12.43;;;10.50;99.90;;;;;;5088474;28;20021;-74
2021/12/20 10:29:22;;;;;;;31.77;11.40;;;10.70;99.90;;;;;;5089130;28;20150;-73
2021/12/20 10:31:49;;;;;;;35.35;12.10;;;10.90;99.90;;;;;;5069637;28;21754;-73
2021/12/20 10:34:18;;;;;;;40.97;12.30;;;10.80;99.90;;;;;;5071035;28;20028;-74
2021/12/20 10:36:54;;;;;;;30.63;12.18;;;10.80;99.90;;;;;;5088621;28;20024;-74
2021/12/20 10:39:41;;;;;;;36.35;12.93;;;11.20;99.90;;;;;;5089617;28;20104;-73
2021/12/20 10:42:26;;;;;;;35.45;13.13;;;11.60;99.90;;;;;;5088368;28;20048;-74
2021/12/20 10:45:10;;;;;;;36.13;13.68;;;11.10;99.90;;;;;;5087668;28;20021;-74
2021/12/20 10:47:36;;;;;;;32.35;12.48;;;10.50;99.90;;;;;;5086191;28;20016;-74
2021/12/20 10:50:42;;;;;;;38.15;14.32;;;10.20;99.90;;;;;;5088359;28;20028;-73
2021/12/20 10:53:24;;;;;;;37.10;12.15;;;9.80;99.90;;;;;;5087188;28;20115;-73
2021/12/20 10:55:56;;;;;;;35.90;13.70;;;9.60;99.90;;;;;;5073488;28;20033;-74
2021/12/20 10:58:30;;;;;;;36.55;14.25;;;9.40;99.90;;;;;;5090801;28;20090;-74
2021/12/20 11:01:24;;;;;;;48.60;15.77;;;9.20;99.90;;;;;;5057529;28;20029;-73
2021/12/20 11:06:43;;;;;;;49.30;14.43;;;8.60;99.90;;;;;;5089279;28;20744;-74
2021/12/20 11:09:13;;;;;;;40.33;14.65;;;8.70;99.90;;;;;;5080020;28;20040;-73
2021/12/20 11:11:41;;;;;;;46.58;14.60;;;9.10;99.90;;;;;;5070652;28;20104;-73
2021/12/20 11:14:08;;;;;;;43.78;14.25;;;9.70;99.90;;;;;;5087763;28;20031;-74
2021/12/20 11:16:40;;;;;;;44.42;13.27;;;9.70;99.90;;;;;;5090222;28;20173;-73
2021/12/20 11:22:07;;;;;;;47.92;15.07;;;9.60;99.90;;;;;;5069304;28;20448;-74
2021/12/20 11:24:42;;;;;;;44.22;15.50;;;9.80;99.90;;;;;;5056634;28;20037;-73
2021/12/20 11:27:11;;;;;;;42.58;13.75;;;9.30;99.90;;;;;;5048254;28;20049;-74
2021/12/20 11:29:38;;;;;;;47.00;13.85;;;9.30;99.90;;;;;;5055953;28;20029;-73
2021/12/20 11:32:04;;;;;;;47.00;14.10;;;8.80;99.90;;;;;;5051158;28;20062;-73
2021/12/20 11:34:31;;;;;;;53.88;15.95;;;8.30;99.90;;;;;;5088295;28;20024;-73
2021/12/20 11:36:57;;;;;;;46.13;15.02;;;8.40;99.90;;;;;;5059185;28;20021;-73
2021/12/20 11:39:24;;;;;;;45.83;15.73;;;8.30;99.90;;;;;;5066873;28;20017;-73
2021/12/20 11:41:50;;;;;;;46.85;15.63;;;8.30;99.90;;;;;;5068233;28;20083;-73
2021/12/20 11:44:19;;;;;;;43.25;14.25;;;8.20;99.90;;;;;;5051250;28;20385;-73
2021/12/20 11:47:13;;;;;;;37.60;12.05;;;8.40;99.90;;;;;;5068464;28;20059;-73
2021/12/20 11:49:39;;;;;;;52.35;14.77;;;8.20;99.90;;;;;;5068816;28;20051;-73
2021/12/20 11:52:13;;;;;;;44.15;13.90;;;8.10;99.90;;;;;;5068271;28;20021;-73
2021/12/20 11:54:56;;;;;;;51.03;17.98;;;8.00;99.90;;;;;;5049406;28;20060;-73
2021/12/20 11:57:33;;;;;;;49.80;16.20;;;7.80;99.90;;;;;;5049977;28;20482;-73
2021/12/20 12:00:05;;;;;;;53.33;16.05;;;7.70;99.90;;;;;;5057161;28;20032;-73
2021/12/20 12:02:38;;;;;;;51.25;16.02;;;7.70;99.90;;;;;;5047780;28;20080;-74
2021/12/20 12:05:15;;;;;;;47.13;16.30;;;7.60;99.90;;;;;;5067470;28;20490;-73
2021/12/20 12:07:41;;;;;;;47.03;16.60;;;7.30;99.90;;;;;;5067875;28;20154;-73
2021/12/20 12:10:11;;;;;;;53.20;17.42;;;7.10;99.90;;;;;;5067810;28;20047;-73
2021/12/20 12:12:41;;;;;;;50.85;16.20;;;7.00;99.90;;;;;;5049259;28;20033;-74
2021/12/20 12:15:21;;;;;;;49.88;17.27;;;7.20;99.90;;;;;;5048085;28;20104;-73
2021/12/20 12:17:58;;;;;;;45.72;16.92;;;6.80;99.90;;;;;;5048018;28;20088;-73
2021/12/20 12:20:50;;;;;;;60.90;17.73;;;6.60;99.90;;;;;;5048481;28;20045;-74
2021/12/20 12:23:22;;;;;;;52.45;18.83;;;6.60;99.90;;;;;;5048884;28;20476;-73
2021/12/20 12:25:53;;;;;;;55.70;18.02;;;6.40;99.90;;;;;;5047627;28;20021;-73
2021/12/20 12:28:22;;;;;;;51.00;17.90;;;6.40;99.90;;;;;;5056674;28;20572;-73
2021/12/20 12:31:06;;;;;;;55.53;17.63;;;6.50;99.90;;;;;;5067612;28;20153;-73
2021/12/20 12:33:34;;;;;;;64.75;19.27;;;6.50;99.90;;;;;;5041096;28;20071;-73
2021/12/20 12:36:04;;;;;;;52.92;17.98;;;6.50;99.90;;;;;;5034365;28;20026;-73
2021/12/20 12:38:35;;;;;;;62.83;18.75;;;6.40;99.90;;;;;;5034222;28;20375;-73
2021/12/20 12:41:12;;;;;;;68.07;17.52;;;6.40;99.90;;;;;;5035558;28;20030;-67
2021/12/20 12:43:58;;;;;;;60.97;18.60;;;6.20;99.90;;;;;;5037054;28;20041;-67
2021/12/20 12:46:45;;;;;;;50.28;19.00;;;6.20;99.90;;;;;;5038079;28;20052;-67
2021/12/20 12:52:23;;;;;;;58.80;21.02;;;6.10;99.90;;;;;;5097782;27;20429;-67
2021/12/20 12:57:34;;;;;;;57.53;20.83;;;5.70;99.90;;;;;;5090230;28;20671;-74
2021/12/20 13:00:07;;;;;;;61.92;21.75;;;5.30;99.90;;;;;;5077608;28;20108;-71
2021/12/20 13:02:41;;;;;;;;;;;5.10;99.90;;;;;;5085112;28;20024;-73
2021/12/20 13:05:14;;;;;;;69.78;22.17;;;5.00;99.90;;;;;;5071299;28;19908;-74
2021/12/20 13:07:44;;;;;;;61.42;23.25;;;4.90;99.90;;;;;;5051993;28;20016;-74
2021/12/20 13:10:13;;;;;;;71.07;24.17;;;4.60;99.90;;;;;;5070052;28;20048;-74